Time;durP1;ratioP1;P1;durP2;ratioP2;P2;SDS_P1;SDS_P2;PMS_P1;PMS_P2;Temp;Humidity;BMP_temperature;BMP_pressure;BME280_temperature;BME280_humidity;BME280_pressure;Samples;Min_cycle;Max_cycle;Signal;HPM_P1;HPM_P2
2023/05/30 00:00:43;;;;;;;5.72;3.10;;;;;;;;;;5053435;28;20025;-68
2023/05/30 00:03:10;;;;;;;6.82;3.75;;;;;;;;;;5053537;28;20047;-68
2023/05/30 00:05:37;;;;;;;5.72;3.92;;;;;;;;;;5053534;28;20033;-68
2023/05/30 00:08:03;;;;;;;11.40;3.90;;;;;;;;;;5053310;28;20496;-68
2023/05/30 00:10:29;;;;;;;5.32;3.25;;;;;;;;;;5052927;28;20029;-68
2023/05/30 00:12:56;;;;;;;7.38;3.53;;;;;;;;;;5053018;28;20017;-68
2023/05/30 00:15:24;;;;;;;7.00;4.07;;;;;;;;;;5053420;28;20037;-68
2023/05/30 00:17:52;;;;;;;7.40;3.67;;;;;;;;;;5053026;28;20040;-68
2023/05/30 00:20:22;;;;;;;5.55;3.67;;;;;;;;;;5053008;28;20024;-68
2023/05/30 00:22:48;;;;;;;7.68;3.50;;;;;;;;;;5052800;28;20043;-68
2023/05/30 00:25:16;;;;;;;7.10;3.63;;;;;;;;;;5053061;28;20039;-68
2023/05/30 00:27:42;;;;;;;5.65;3.20;;;;;;;;;;5052730;28;20497;-68
2023/05/30 00:30:09;;;;;;;4.72;3.40;;;;;;;;;;5053011;28;20032;-68
2023/05/30 00:32:35;;;;;;;11.02;3.53;;;;;;;;;;5053096;28;20017;-68
2023/05/30 00:35:02;;;;;;;9.15;3.50;;;;;;;;;;5052904;28;20038;-68
2023/05/30 00:37:28;;;;;;;6.72;3.60;;;;;;;;;;5052965;28;20027;-67
2023/05/30 00:39:55;;;;;;;5.85;3.38;;;;;;;;;;5052563;28;20025;-68
2023/05/30 00:42:21;;;;;;;7.28;3.83;;;;;;;;;;5052684;28;20023;-68
2023/05/30 00:44:47;;;;;;;10.63;3.55;;;;;;;;;;5052429;28;20049;-68
2023/05/30 00:47:14;;;;;;;10.02;3.67;;;;;;;;;;5052386;28;20481;-68
2023/05/30 00:49:40;;;;;;;6.30;3.90;;;;;;;;;;5052662;28;20037;-68
2023/05/30 00:52:08;;;;;;;6.35;3.80;;;;;;;;;;5052621;28;20025;-68
2023/05/30 00:54:34;;;;;;;6.70;3.88;;;;;;;;;;5052180;28;20409;-68
2023/05/30 00:57:01;;;;;;;7.10;4.32;;;;;;;;;;5052138;28;20033;-68
2023/05/30 00:59:28;;;;;;;5.63;3.85;;;;;;;;;;5052319;28;20033;-68
2023/05/30 01:01:54;;;;;;;6.00;4.18;;;;;;;;;;5052206;28;20490;-68
2023/05/30 01:04:20;;;;;;;7.63;4.10;;;;;;;;;;5052175;28;20044;-68
2023/05/30 01:06:47;;;;;;;9.18;4.13;;;;;;;;;;5051793;28;20385;-68
2023/05/30 01:09:14;;;;;;;5.82;3.70;;;;;;;;;;5052164;28;20033;-68
2023/05/30 01:11:40;;;;;;;6.07;4.40;;;;;;;;;;5052018;28;20031;-68
2023/05/30 01:14:14;;;;;;;7.90;4.18;;;;;;;;;;5052270;28;20023;-68
2023/05/30 01:16:47;;;;;;;9.80;4.15;;;;;;;;;;5052077;28;20032;-68
2023/05/30 01:19:14;;;;;;;8.30;3.75;;;;;;;;;;5052010;28;20542;-68
2023/05/30 01:21:41;;;;;;;4.78;4.00;;;;;;;;;;5051961;28;20029;-68
2023/05/30 01:24:10;;;;;;;5.75;4.00;;;;;;;;;;5051642;28;20049;-68
2023/05/30 01:26:55;;;;;;;6.18;4.07;;;;;;;;;;5052099;28;20035;-67
2023/05/30 01:29:24;;;;;;;9.05;4.25;;;;;;;;;;5052134;28;20229;-68
2023/05/30 01:31:50;;;;;;;6.15;4.03;;;;;;;;;;5051787;28;20037;-68
2023/05/30 01:34:17;;;;;;;8.15;3.95;;;;;;;;;;5052153;28;20066;-68
2023/05/30 01:36:43;;;;;;;6.50;4.13;;;;;;;;;;5051947;28;20027;-68
2023/05/30 01:39:09;;;;;;;7.65;4.15;;;;;;;;;;5051894;28;20017;-68
2023/05/30 01:41:45;;;;;;;6.88;4.22;;;;;;;;;;5052167;28;20047;-68
2023/05/30 01:44:20;;;;;;;7.78;3.60;;;;;;;;;;5051619;28;20492;-68
2023/05/30 01:46:57;;;;;;;7.20;4.15;;;;;;;;;;5051801;28;20021;-68
2023/05/30 01:49:46;;;;;;;10.80;4.60;;;;;;;;;;5051837;28;20033;-68
2023/05/30 01:52:17;;;;;;;6.05;4.22;;;;;;;;;;5051618;28;20025;-68
2023/05/30 01:54:43;;;;;;;;;;;;;;;;;;5052219;28;20021;-68
2023/05/30 01:57:12;;;;;;;10.68;4.60;;;;;;;;;;5051495;28;20360;-68
2023/05/30 01:59:39;;;;;;;7.93;4.53;;;;;;;;;;5051728;28;20021;-68
2023/05/30 02:02:06;;;;;;;8.93;4.65;;;;;;;;;;5051519;28;20033;-68
2023/05/30 02:04:33;;;;;;;7.72;4.43;;;;;;;;;;5051602;28;20041;-68
2023/05/30 02:06:59;;;;;;;8.10;4.70;;;;;;;;;;5051613;28;20013;-68
2023/05/30 02:09:26;;;;;;;9.45;4.75;;;;;;;;;;5051803;28;20029;-68
2023/05/30 02:11:52;;;;;;;6.03;4.05;;;;;;;;;;5051563;28;20029;-68
2023/05/30 02:14:19;;;;;;;6.43;4.70;;;;;;;;;;5051623;28;20025;-68
2023/05/30 02:16:46;;;;;;;8.43;4.90;;;;;;;;;;5051707;28;20025;-68
2023/05/30 02:19:12;;;;;;;9.50;4.85;;;;;;;;;;5054828;28;20530;-68
2023/05/30 02:21:39;;;;;;;8.35;5.07;;;;;;;;;;5054918;28;20034;-68
2023/05/30 02:24:05;;;;;;;7.15;4.68;;;;;;;;;;5055022;28;20086;-68
2023/05/30 02:26:32;;;;;;;11.43;5.22;;;;;;;;;;5055189;28;20286;-68
2023/05/30 02:28:58;;;;;;;10.02;4.78;;;;;;;;;;5055059;28;20028;-68
2023/05/30 02:31:24;;;;;;;8.20;4.55;;;;;;;;;;5055356;28;20021;-68
2023/05/30 02:33:51;;;;;;;7.22;4.38;;;;;;;;;;5055358;28;20020;-68
2023/05/30 02:36:17;;;;;;;7.38;4.70;;;;;;;;;;5054835;28;20053;-68
2023/05/30 02:38:43;;;;;;;7.90;4.95;;;;;;;;;;5054039;28;20036;-68
2023/05/30 02:41:10;;;;;;;9.48;4.32;;;;;;;;;;5054828;28;20381;-68
2023/05/30 02:43:36;;;;;;;14.48;4.60;;;;;;;;;;5055003;28;20082;-68
2023/05/30 02:46:04;;;;;;;7.60;4.65;;;;;;;;;;5054801;28;20513;-68
2023/05/30 02:48:30;;;;;;;9.55;4.90;;;;;;;;;;5054926;28;20032;-68
2023/05/30 02:50:57;;;;;;;12.57;4.40;;;;;;;;;;5054758;28;20021;-68
2023/05/30 02:53:23;;;;;;;10.48;4.95;;;;;;;;;;5054757;28;20017;-68
2023/05/30 02:55:50;;;;;;;11.43;4.68;;;;;;;;;;5054691;28;20025;-68
2023/05/30 02:58:16;;;;;;;13.15;4.90;;;;;;;;;;5054273;28;20385;-68
2023/05/30 03:00:42;;;;;;;5.57;4.57;;;;;;;;;;5054633;28;20024;-68
2023/05/30 03:03:09;;;;;;;8.80;5.40;;;;;;;;;;5054593;28;20033;-68
2023/05/30 03:05:35;;;;;;;9.45;4.88;;;;;;;;;;5054131;28;20032;-68
2023/05/30 03:08:02;;;;;;;7.97;4.90;;;;;;;;;;5054460;28;20489;-68
2023/05/30 03:10:29;;;;;;;10.73;5.25;;;;;;;;;;5054468;28;20043;-68
2023/05/30 03:12:55;;;;;;;8.80;4.80;;;;;;;;;;5054320;28;20508;-68
2023/05/30 03:15:22;;;;;;;8.40;4.80;;;;;;;;;;5054328;28;20459;-68
2023/05/30 03:17:49;;;;;;;12.35;5.00;;;;;;;;;;5054152;28;20021;-68
2023/05/30 03:20:16;;;;;;;16.25;4.72;;;;;;;;;;5052904;28;20029;-68
2023/05/30 03:22:43;;;;;;;6.95;4.97;;;;;;;;;;5054031;28;20028;-68
2023/05/30 03:25:09;;;;;;;9.20;5.00;;;;;;;;;;5054027;28;20478;-68
2023/05/30 03:27:35;;;;;;;12.82;6.25;;;;;;;;;;5054016;28;20029;-68
2023/05/30 03:30:03;;;;;;;11.93;4.90;;;;;;;;;;5053970;28;20033;-68
2023/05/30 03:32:29;;;;;;;7.68;5.00;;;;;;;;;;5053734;28;20033;-68
2023/05/30 03:34:55;;;;;;;8.75;4.57;;;;;;;;;;5054069;28;20099;-68
2023/05/30 03:37:21;;;;;;;8.23;5.40;;;;;;;;;;5053809;28;20096;-68
2023/05/30 03:39:48;;;;;;;7.18;4.65;;;;;;;;;;5053782;28;20029;-68
2023/05/30 03:42:14;;;;;;;9.15;4.63;;;;;;;;;;5053669;28;20029;-68
2023/05/30 03:44:40;;;;;;;8.35;4.45;;;;;;;;;;5053708;28;20032;-68
2023/05/30 03:47:07;;;;;;;9.80;5.05;;;;;;;;;;5053327;28;20078;-68
2023/05/30 03:49:33;;;;;;;9.13;5.22;;;;;;;;;;5053598;28;20033;-68
2023/05/30 03:51:59;;;;;;;7.80;4.75;;;;;;;;;;5053846;28;20029;-68
2023/05/30 03:54:26;;;;;;;9.18;5.65;;;;;;;;;;5053371;28;20481;-68
2023/05/30 03:56:52;;;;;;;11.07;5.53;;;;;;;;;;5053395;28;20605;-68
2023/05/30 03:59:18;;;;;;;8.48;5.20;;;;;;;;;;5053514;28;20027;-68
2023/05/30 04:01:45;;;;;;;7.13;4.72;;;;;;;;;;5053145;28;20027;-68
2023/05/30 04:04:11;;;;;;;9.75;4.40;;;;;;;;;;5053218;28;20428;-68
2023/05/30 04:06:37;;;;;;;6.85;4.90;;;;;;;;;;5053236;28;20021;-68
2023/05/30 04:09:04;;;;;;;8.25;5.03;;;;;;;;;;5053159;28;20027;-68
2023/05/30 04:11:31;;;;;;;18.75;7.28;;;;;;;;;;5053145;28;20025;-68
2023/05/30 04:13:57;;;;;;;8.55;5.18;;;;;;;;;;5053388;28;20025;-68
2023/05/30 04:16:23;;;;;;;9.98;5.88;;;;;;;;;;5053183;28;20017;-68
2023/05/30 04:18:50;;;;;;;10.23;5.57;;;;;;;;;;5053061;28;20028;-68
2023/05/30 04:21:16;;;;;;;6.00;4.88;;;;;;;;;;5053087;28;20033;-68
2023/05/30 04:23:43;;;;;;;10.80;5.18;;;;;;;;;;5052840;28;20041;-68
2023/05/30 04:26:09;;;;;;;5.72;4.82;;;;;;;;;;5052793;28;20033;-68
2023/05/30 04:28:39;;;;;;;8.77;5.03;;;;;;;;;;5052911;28;20043;-68
2023/05/30 04:31:09;;;;;;;8.85;5.35;;;;;;;;;;5052516;28;20082;-68
2023/05/30 04:33:35;;;;;;;15.93;5.38;;;;;;;;;;5052669;28;20043;-68
2023/05/30 04:36:04;;;;;;;8.95;5.25;;;;;;;;;;5052858;28;20021;-68
2023/05/30 04:38:32;;;;;;;13.50;5.28;;;;;;;;;;5052655;28;20013;-68
2023/05/30 04:41:02;;;;;;;7.35;4.97;;;;;;;;;;5051940;28;20021;-68
2023/05/30 04:43:31;;;;;;;6.85;4.55;;;;;;;;;;5052782;28;20018;-68
2023/05/30 04:46:03;;;;;;;6.88;4.85;;;;;;;;;;5052807;28;20358;-67
2023/05/30 04:48:30;;;;;;;13.05;5.25;;;;;;;;;;5052477;28;20381;-68
2023/05/30 04:50:59;;;;;;;9.27;4.93;;;;;;;;;;5051236;28;20040;-68
2023/05/30 04:53:25;;;;;;;15.32;4.95;;;;;;;;;;5052678;28;20031;-68
2023/05/30 04:55:52;;;;;;;9.50;5.30;;;;;;;;;;5052457;28;20035;-68
2023/05/30 04:58:18;;;;;;;11.40;5.65;;;;;;;;;;5052213;28;20031;-67
2023/05/30 05:00:45;;;;;;;7.28;5.43;;;;;;;;;;5051993;28;20032;-68
2023/05/30 05:03:11;;;;;;;8.25;5.20;;;;;;;;;;5052253;28;20363;-68
2023/05/30 05:05:38;;;;;;;13.00;5.70;;;;;;;;;;5052535;28;20027;-68
2023/05/30 05:08:04;;;;;;;11.27;5.40;;;;;;;;;;5052070;28;20040;-68
2023/05/30 05:10:31;;;;;;;12.75;4.97;;;;;;;;;;5052391;28;20028;-68
2023/05/30 05:12:57;;;;;;;7.47;4.72;;;;;;;;;;5052224;28;20021;-68
2023/05/30 05:15:23;;;;;;;16.92;6.20;;;;;;;;;;5052275;28;20424;-68
2023/05/30 05:17:50;;;;;;;6.70;5.22;;;;;;;;;;5052117;28;20029;-68
2023/05/30 05:20:16;;;;;;;13.27;5.38;;;;;;;;;;5052315;28;20082;-68
2023/05/30 05:22:42;;;;;;;9.13;5.50;;;;;;;;;;5051816;28;20039;-68
2023/05/30 05:25:09;;;;;;;8.85;5.70;;;;;;;;;;5051867;28;20027;-68
2023/05/30 05:27:35;;;;;;;6.75;5.13;;;;;;;;;;5051746;28;20025;-68
2023/05/30 05:30:02;;;;;;;11.38;5.05;;;;;;;;;;5051892;28;20021;-68
2023/05/30 05:32:29;;;;;;;9.48;5.60;;;;;;;;;;5051831;28;20028;-68
2023/05/30 05:34:55;;;;;;;9.15;5.43;;;;;;;;;;5051850;28;20037;-68
2023/05/30 05:37:21;;;;;;;8.43;4.82;;;;;;;;;;5051906;28;20021;-68
2023/05/30 05:39:48;;;;;;;7.07;4.95;;;;;;;;;;5051663;28;20047;-68
2023/05/30 05:42:14;;;;;;;7.40;5.03;;;;;;;;;;5050791;28;20021;-68
2023/05/30 05:44:40;;;;;;;7.72;4.82;;;;;;;;;;5051189;28;20029;-68
2023/05/30 05:47:07;;;;;;;9.02;5.45;;;;;;;;;;5051374;28;20404;-68
2023/05/30 05:49:33;;;;;;;9.88;5.45;;;;;;;;;;5049031;28;20493;-68
2023/05/30 05:52:00;;;;;;;7.05;5.13;;;;;;;;;;5051951;28;20027;-68
2023/05/30 05:54:26;;;;;;;11.85;5.57;;;;;;;;;;5054958;28;20037;-68
2023/05/30 05:56:52;;;;;;;8.40;5.22;;;;;;;;;;5055019;28;20474;-68
2023/05/30 05:59:19;;;;;;;10.38;5.07;;;;;;;;;;5055310;28;20025;-68
2023/05/30 06:01:45;;;;;;;6.88;4.85;;;;;;;;;;5055241;28;20515;-68
2023/05/30 06:04:13;;;;;;;8.02;4.90;;;;;;;;;;5055009;28;20381;-68
2023/05/30 06:06:39;;;;;;;7.03;4.50;;;;;;;;;;5055213;28;20518;-68
2023/05/30 06:09:05;;;;;;;11.32;5.45;;;;;;;;;;5054975;28;20043;-68
2023/05/30 06:11:32;;;;;;;7.97;5.35;;;;;;;;;;5055270;28;20029;-68
2023/05/30 06:13:58;;;;;;;14.90;5.03;;;;;;;;;;5054713;28;20031;-68
2023/05/30 06:16:25;;;;;;;8.05;5.35;;;;;;;;;;5051361;28;20036;-68
2023/05/30 06:18:51;;;;;;;9.00;5.05;;;;;;;;;;5053359;28;20036;-68
2023/05/30 06:21:17;;;;;;;11.23;5.72;;;;;;;;;;5053821;28;20025;-68
2023/05/30 06:23:43;;;;;;;9.55;5.15;;;;;;;;;;5054384;28;20059;-68
2023/05/30 06:26:10;;;;;;;8.32;5.28;;;;;;;;;;5054547;28;20481;-68
2023/05/30 06:28:36;;;;;;;8.27;4.85;;;;;;;;;;5048527;28;20026;-68
2023/05/30 06:31:02;;;;;;;13.48;5.60;;;;;;;;;;5047356;28;20025;-68
2023/05/30 06:33:29;;;;;;;9.40;5.15;;;;;;;;;;5040449;28;20083;-68
2023/05/30 06:35:55;;;;;;;11.32;4.95;;;;;;;;;;5037324;28;20505;-68
2023/05/30 06:38:23;;;;;;;10.88;4.95;;;;;;;;;;5052264;28;20029;-68
2023/05/30 06:40:49;;;;;;;10.57;5.28;;;;;;;;;;5054496;28;20051;-68
2023/05/30 06:43:16;;;;;;;8.23;4.88;;;;;;;;;;5054234;28;20017;-68
2023/05/30 06:45:43;;;;;;;9.02;4.90;;;;;;;;;;5053987;28;20033;-68
2023/05/30 06:48:10;;;;;;;8.25;4.90;;;;;;;;;;5053483;28;20017;-68
2023/05/30 06:50:36;;;;;;;9.57;4.82;;;;;;;;;;5053398;28;20029;-68
2023/05/30 06:53:02;;;;;;;7.15;4.50;;;;;;;;;;5051775;28;20021;-68
2023/05/30 06:55:29;;;;;;;7.57;4.10;;;;;;;;;;5048757;28;20044;-69
2023/05/30 06:57:55;;;;;;;5.75;4.60;;;;;;;;;;5050738;28;20017;-68
2023/05/30 07:00:22;;;;;;;6.82;4.70;;;;;;;;;;5050959;28;20036;-68
2023/05/30 07:02:48;;;;;;;6.18;4.57;;;;;;;;;;5050535;28;20024;-68
2023/05/30 07:05:15;;;;;;;6.05;4.57;;;;;;;;;;5048629;28;20062;-69
2023/05/30 07:07:45;;;;;;;7.32;4.43;;;;;;;;;;5039438;28;20027;-69
2023/05/30 07:10:12;;;;;;;7.33;4.93;;;;;;;;;;5053788;28;20020;-69
2023/05/30 07:12:39;;;;;;;4.90;4.10;;;;;;;;;;5054029;28;20024;-68
2023/05/30 07:15:09;;;;;;;6.60;4.50;;;;;;;;;;5053803;28;20037;-68
2023/05/30 07:17:35;;;;;;;5.40;4.30;;;;;;;;;;5053866;28;20063;-68
2023/05/30 07:20:02;;;;;;;5.03;4.13;;;;;;;;;;5052331;28;20025;-68
2023/05/30 07:22:28;;;;;;;9.63;4.40;;;;;;;;;;5052490;28;20021;-68
2023/05/30 07:24:54;;;;;;;9.82;4.53;;;;;;;;;;5048048;28;20142;-69
2023/05/30 07:27:21;;;;;;;5.90;4.40;;;;;;;;;;5052883;28;20033;-69
2023/05/30 07:29:47;;;;;;;5.45;4.38;;;;;;;;;;5052200;28;20025;-69
2023/05/30 07:32:13;;;;;;;9.23;4.30;;;;;;;;;;5050954;28;20031;-70
2023/05/30 07:34:40;;;;;;;5.22;4.55;;;;;;;;;;5052467;28;20507;-69
2023/05/30 07:37:07;;;;;;;6.18;4.70;;;;;;;;;;5052329;28;20021;-69
2023/05/30 07:39:33;;;;;;;6.85;4.07;;;;;;;;;;5052246;28;20033;-70
2023/05/30 07:42:00;;;;;;;5.78;3.97;;;;;;;;;;5052658;28;20409;-70
2023/05/30 07:44:27;;;;;;;5.43;3.65;;;;;;;;;;5052340;28;20749;-70
2023/05/30 07:46:53;;;;;;;5.05;4.55;;;;;;;;;;5052272;28;20025;-70
2023/05/30 07:49:20;;;;;;;9.30;4.53;;;;;;;;;;5052561;28;20045;-70
2023/05/30 07:51:46;;;;;;;4.82;4.18;;;;;;;;;;5052321;28;20043;-70
2023/05/30 07:54:13;;;;;;;6.15;4.05;;;;;;;;;;5052116;28;20463;-70
2023/05/30 07:56:40;;;;;;;9.65;4.10;;;;;;;;;;5051635;28;20367;-70
2023/05/30 07:59:06;;;;;;;4.68;3.80;;;;;;;;;;5051574;28;20025;-70
2023/05/30 08:01:33;;;;;;;6.00;4.07;;;;;;;;;;5051770;28;20112;-70
2023/05/30 08:04:00;;;;;;;7.25;4.72;;;;;;;;;;5052163;28;20017;-71
2023/05/30 08:06:26;;;;;;;4.55;3.85;;;;;;;;;;5051387;28;20145;-71
2023/05/30 08:08:52;;;;;;;6.40;4.55;;;;;;;;;;5051014;28;20029;-71
2023/05/30 08:11:19;;;;;;;7.90;3.97;;;;;;;;;;5052117;28;20031;-71
2023/05/30 08:13:47;;;;;;;5.53;3.92;;;;;;;;;;5052013;28;20091;-69
2023/05/30 08:16:14;;;;;;;4.93;3.97;;;;;;;;;;5050776;28;20013;-70
2023/05/30 08:18:41;;;;;;;5.32;4.10;;;;;;;;;;5057237;28;20033;-71
2023/05/30 08:21:11;;;;;;;6.80;3.80;;;;;;;;;;5051755;28;20021;-70
2023/05/30 08:23:37;;;;;;;3.83;3.33;;;;;;;;;;5051280;28;20067;-70
2023/05/30 08:26:06;;;;;;;5.15;4.35;;;;;;;;;;5051745;28;20486;-70
2023/05/30 08:28:33;;;;;;;4.25;3.22;;;;;;;;;;5051560;28;20090;-70
2023/05/30 08:30:59;;;;;;;7.88;3.80;;;;;;;;;;5051496;28;20019;-70
2023/05/30 08:33:26;;;;;;;5.90;3.67;;;;;;;;;;5051433;28;20017;-70
2023/05/30 08:35:52;;;;;;;3.70;3.40;;;;;;;;;;5051749;28;20029;-70
2023/05/30 08:38:19;;;;;;;5.03;3.70;;;;;;;;;;5051001;28;20086;-69
2023/05/30 08:40:46;;;;;;;3.85;3.45;;;;;;;;;;5051515;28;20025;-70
2023/05/30 08:43:13;;;;;;;6.70;3.22;;;;;;;;;;5051830;28;20090;-69
2023/05/30 08:45:39;;;;;;;4.32;3.80;;;;;;;;;;5049989;28;20039;-71
2023/05/30 08:48:06;;;;;;;8.25;4.10;;;;;;;;;;5050941;28;20066;-71
2023/05/30 08:50:36;;;;;;;5.97;3.70;;;;;;;;;;5051085;28;20439;-71
2023/05/30 08:53:09;;;;;;;5.03;3.70;;;;;;;;;;5051312;28;20025;-70
2023/05/30 08:55:38;;;;;;;9.60;3.80;;;;;;;;;;5049522;28;20037;-70
2023/05/30 08:58:08;;;;;;;6.55;3.90;;;;;;;;;;5051303;28;20027;-71
2023/05/30 09:00:38;;;;;;;4.53;3.90;;;;;;;;;;5050964;28;20025;-71
2023/05/30 09:03:05;;;;;;;6.25;3.88;;;;;;;;;;5051132;28;20470;-71
2023/05/30 09:05:36;;;;;;;5.90;3.78;;;;;;;;;;5050346;28;20041;-70
2023/05/30 09:08:03;;;;;;;7.55;3.53;;;;;;;;;;5050954;28;20501;-71
2023/05/30 09:10:29;;;;;;;6.85;3.38;;;;;;;;;;5050909;28;20029;-71
2023/05/30 09:12:58;;;;;;;6.40;3.50;;;;;;;;;;5050466;28;20478;-70
2023/05/30 09:15:24;;;;;;;4.78;3.20;;;;;;;;;;5049366;28;20485;-71
2023/05/30 09:17:50;;;;;;;4.63;3.38;;;;;;;;;;5051057;28;20486;-70
2023/05/30 09:20:17;;;;;;;4.38;3.30;;;;;;;;;;5050214;28;20028;-70
2023/05/30 09:22:47;;;;;;;4.20;3.05;;;;;;;;;;5050067;28;20485;-71
2023/05/30 09:25:15;;;;;;;3.15;2.92;;;;;;;;;;5050843;28;20044;-71
2023/05/30 09:27:43;;;;;;;4.40;3.33;;;;;;;;;;5049952;28;20410;-71
2023/05/30 09:30:10;;;;;;;3.60;3.17;;;;;;;;;;5049536;28;20039;-71
2023/05/30 09:32:38;;;;;;;4.78;3.42;;;;;;;;;;5050632;28;20025;-71
2023/05/30 09:35:06;;;;;;;4.05;3.10;;;;;;;;;;5050485;28;20063;-70
2023/05/30 09:37:36;;;;;;;3.28;3.08;;;;;;;;;;5050202;28;20033;-71
2023/05/30 09:40:15;;;;;;;3.75;3.08;;;;;;;;;;5050310;28;20047;-71
2023/05/30 09:42:42;;;;;;;5.35;3.13;;;;;;;;;;5050470;28;20128;-71
2023/05/30 09:45:10;;;;;;;3.20;2.88;;;;;;;;;;5050392;28;20037;-71
2023/05/30 09:47:46;;;;;;;3.75;3.05;;;;;;;;;;5050434;28;20021;-71
2023/05/30 09:50:14;;;;;;;4.22;2.80;;;;;;;;;;5050487;28;20025;-71
2023/05/30 09:52:41;;;;;;;3.53;2.85;;;;;;;;;;5049901;28;20024;-71
2023/05/30 09:55:08;;;;;;;2.95;2.72;;;;;;;;;;5050356;28;20031;-71
2023/05/30 09:57:36;;;;;;;3.08;2.85;;;;;;;;;;5048915;28;20033;-71
2023/05/30 10:00:09;;;;;;;3.92;2.90;;;;;;;;;;5049848;28;20035;-71
2023/05/30 10:02:36;;;;;;;3.50;2.78;;;;;;;;;;5050491;28;20017;-71
2023/05/30 10:05:04;;;;;;;3.55;2.75;;;;;;;;;;5050072;28;20784;-70
2023/05/30 10:07:31;;;;;;;2.95;2.65;;;;;;;;;;5048913;28;20389;-71
2023/05/30 10:09:58;;;;;;;6.57;2.63;;;;;;;;;;5050000;28;20409;-71
2023/05/30 10:12:24;;;;;;;3.05;2.72;;;;;;;;;;5049774;28;20025;-71
2023/05/30 10:14:51;;;;;;;2.78;2.53;;;;;;;;;;5050660;28;20029;-70
2023/05/30 10:17:19;;;;;;;3.05;2.67;;;;;;;;;;5050372;28;20025;-71
2023/05/30 10:20:12;;;;;;;4.82;2.60;;;;;;;;;;5050081;28;20033;-71
2023/05/30 10:22:41;;;;;;;5.18;2.78;;;;;;;;;;5048258;28;20040;-71
2023/05/30 10:25:08;;;;;;;3.30;3.00;;;;;;;;;;5050289;28;20045;-71
2023/05/30 10:27:43;;;;;;;5.43;3.10;;;;;;;;;;5049999;28;20032;-70
2023/05/30 10:30:12;;;;;;;3.38;2.75;;;;;;;;;;5049799;28;20025;-70
2023/05/30 10:32:38;;;;;;;;;;;;;;;;;;5050526;28;20031;-71
2023/05/30 10:35:23;;;;;;;2.90;2.60;;;;;;;;;;5049959;28;19915;-70
2023/05/30 10:37:50;;;;;;;5.50;2.83;;;;;;;;;;5050181;28;20485;-70
2023/05/30 10:40:32;;;;;;;4.63;2.58;;;;;;;;;;5053381;28;20039;-71
2023/05/30 10:42:58;;;;;;;3.00;2.65;;;;;;;;;;5053764;28;20370;-70
2023/05/30 10:45:32;;;;;;;3.88;2.80;;;;;;;;;;5053538;28;20486;-71
2023/05/30 10:47:58;;;;;;;4.75;2.47;;;;;;;;;;5053819;28;20039;-70
2023/05/30 10:50:38;;;;;;;2.80;2.60;;;;;;;;;;5053728;28;20029;-70
2023/05/30 10:53:19;;;;;;;5.80;2.85;;;;;;;;;;5053726;28;20017;-70
2023/05/30 10:55:47;;;;;;;2.58;2.38;;;;;;;;;;5053059;28;20025;-70
2023/05/30 10:58:32;;;;;;;4.15;2.50;;;;;;;;;;5053426;28;20043;-70
2023/05/30 11:01:19;;;;;;;4.10;2.53;;;;;;;;;;5053467;28;20021;-70
2023/05/30 11:03:45;;;;;;;4.22;2.40;;;;;;;;;;5053272;28;20029;-70
2023/05/30 11:06:12;;;;;;;3.05;2.50;;;;;;;;;;5051954;28;20032;-70
2023/05/30 11:08:40;;;;;;;4.72;2.67;;;;;;;;;;5053208;28;20479;-70
2023/05/30 11:11:19;;;;;;;6.53;2.65;;;;;;;;;;5053378;28;20028;-70
2023/05/30 11:13:47;;;;;;;2.88;2.45;;;;;;;;;;5053274;28;20374;-70
2023/05/30 11:16:23;;;;;;;3.22;2.60;;;;;;;;;;5053029;28;20036;-70
2023/05/30 11:18:53;;;;;;;2.95;2.53;;;;;;;;;;5053310;28;20025;-70
2023/05/30 11:21:39;;;;;;;3.63;2.67;;;;;;;;;;5053348;28;20032;-70
2023/05/30 11:24:08;;;;;;;3.80;2.40;;;;;;;;;;5053021;28;20052;-70
2023/05/30 11:26:54;;;;;;;4.05;2.50;;;;;;;;;;5052982;28;20042;-71
2023/05/30 11:29:39;;;;;;;5.72;2.22;;;;;;;;;;5053079;28;20035;-71
2023/05/30 11:32:07;;;;;;;2.50;2.30;;;;;;;;;;5052833;28;20027;-70
2023/05/30 11:34:36;;;;;;;4.10;2.65;;;;;;;;;;5053001;28;20025;-70
2023/05/30 11:37:02;;;;;;;;;;;;;;;;;;5051236;28;20031;-70
2023/05/30 11:39:31;;;;;;;4.35;2.58;;;;;;;;;;5052190;28;20296;-71
2023/05/30 11:41:58;;;;;;;7.15;2.35;;;;;;;;;;5053532;28;20056;-71
2023/05/30 11:44:25;;;;;;;4.38;2.50;;;;;;;;;;5052814;28;20049;-71
2023/05/30 11:47:18;;;;;;;3.22;2.45;;;;;;;;;;5052017;28;20025;-70
2023/05/30 11:49:45;;;;;;;4.97;2.40;;;;;;;;;;5051179;28;20047;-70
2023/05/30 11:52:15;;;;;;;3.35;2.50;;;;;;;;;;5052091;28;20029;-70
2023/05/30 11:54:41;;;;;;;5.30;2.17;;;;;;;;;;5052326;28;20481;-70
2023/05/30 11:57:11;;;;;;;4.25;2.53;;;;;;;;;;5052391;28;20021;-70
2023/05/30 11:59:41;;;;;;;5.05;2.45;;;;;;;;;;5049351;28;20025;-70
2023/05/30 12:02:08;;;;;;;3.30;2.47;;;;;;;;;;5051897;28;20025;-70
2023/05/30 12:04:37;;;;;;;4.53;2.63;;;;;;;;;;5037920;28;20489;-70
2023/05/30 12:07:04;;;;;;;7.53;2.40;;;;;;;;;;5047935;28;20501;-70
2023/05/30 12:09:38;;;;;;;2.63;2.20;;;;;;;;;;5048863;28;20025;-70
2023/05/30 12:12:05;;;;;;;4.03;2.65;;;;;;;;;;5051433;28;20417;-70
2023/05/30 12:14:49;;;;;;;4.07;2.90;;;;;;;;;;5048387;28;20448;-70
2023/05/30 12:17:24;;;;;;;3.88;2.28;;;;;;;;;;5047845;28;20376;-69
2023/05/30 12:20:00;;;;;;;3.70;2.67;;;;;;;;;;5047835;28;20197;-70
2023/05/30 12:22:33;;;;;;;3.38;2.40;;;;;;;;;;5049825;28;20051;-69
2023/05/30 12:25:00;;;;;;;5.85;2.90;;;;;;;;;;5051280;28;20412;-69
2023/05/30 12:27:26;;;;;;;3.47;2.70;;;;;;;;;;5050580;28;20467;-70
2023/05/30 12:29:53;;;;;;;4.55;2.45;;;;;;;;;;5051154;28;20029;-70
2023/05/30 12:32:28;;;;;;;4.68;2.45;;;;;;;;;;5050820;28;20029;-70
2023/05/30 12:34:58;;;;;;;3.15;2.50;;;;;;;;;;5050885;28;20513;-69
2023/05/30 12:37:25;;;;;;;2.80;2.22;;;;;;;;;;5051271;28;20039;-69
2023/05/30 12:39:52;;;;;;;4.35;2.60;;;;;;;;;;5051726;28;20028;-69
2023/05/30 12:42:22;;;;;;;5.50;3.10;;;;;;;;;;5050485;28;20017;-70
2023/05/30 12:44:49;;;;;;;4.32;2.47;;;;;;;;;;5050851;28;20047;-69
2023/05/30 12:47:16;;;;;;;3.90;2.50;;;;;;;;;;5051164;28;20025;-69
2023/05/30 12:49:43;;;;;;;3.15;2.85;;;;;;;;;;5049659;28;20093;-69
2023/05/30 12:52:11;;;;;;;5.95;2.90;;;;;;;;;;5049098;28;20013;-70
2023/05/30 12:54:37;;;;;;;3.38;2.53;;;;;;;;;;5047764;28;20029;-70
2023/05/30 12:57:04;;;;;;;4.15;2.92;;;;;;;;;;5031422;28;20031;-69
2023/05/30 12:59:31;;;;;;;6.32;3.13;;;;;;;;;;5050528;28;20029;-69
2023/05/30 13:01:58;;;;;;;3.22;2.80;;;;;;;;;;5051401;28;20393;-69
2023/05/30 13:04:24;;;;;;;4.93;3.10;;;;;;;;;;5050795;28;20028;-69
2023/05/30 13:06:50;;;;;;;3.85;2.78;;;;;;;;;;5047356;28;20029;-69
2023/05/30 13:09:17;;;;;;;4.85;2.65;;;;;;;;;;5045616;28;20017;-69
2023/05/30 13:11:43;;;;;;;6.47;3.10;;;;;;;;;;5046881;28;20626;-69
2023/05/30 13:14:09;;;;;;;4.05;2.88;;;;;;;;;;5052608;28;20023;-69
2023/05/30 13:16:36;;;;;;;4.10;2.60;;;;;;;;;;5051226;28;20021;-69
2023/05/30 13:19:02;;;;;;;3.13;2.80;;;;;;;;;;5051596;28;20515;-70
2023/05/30 13:21:28;;;;;;;4.47;2.63;;;;;;;;;;5049774;28;20029;-69
2023/05/30 13:23:55;;;;;;;4.10;2.70;;;;;;;;;;5050377;28;20053;-69
2023/05/30 13:26:22;;;;;;;3.35;2.75;;;;;;;;;;5051890;28;20490;-70
2023/05/30 13:28:48;;;;;;;4.53;2.95;;;;;;;;;;5060284;28;20024;-69
2023/05/30 13:31:15;;;;;;;4.10;2.67;;;;;;;;;;5054373;28;20028;-70
2023/05/30 13:33:41;;;;;;;5.47;2.72;;;;;;;;;;5054661;28;20028;-69
2023/05/30 13:36:07;;;;;;;6.63;3.08;;;;;;;;;;5046086;28;20029;-70
2023/05/30 13:38:34;;;;;;;3.92;2.95;;;;;;;;;;5046702;28;20033;-70
2023/05/30 13:41:00;;;;;;;3.63;2.53;;;;;;;;;;5042556;28;20030;-70
2023/05/30 13:43:27;;;;;;;7.00;2.72;;;;;;;;;;5038558;28;20036;-69
2023/05/30 13:45:53;;;;;;;3.13;2.83;;;;;;;;;;5044610;28;20082;-69
2023/05/30 13:48:20;;;;;;;4.30;2.60;;;;;;;;;;5045451;28;20029;-70
2023/05/30 13:50:47;;;;;;;7.22;2.83;;;;;;;;;;5038011;28;20020;-69
2023/05/30 13:53:13;;;;;;;4.93;2.70;;;;;;;;;;5049320;28;20507;-69
2023/05/30 13:55:39;;;;;;;5.30;2.60;;;;;;;;;;5049656;28;20035;-69
2023/05/30 13:58:06;;;;;;;3.20;2.85;;;;;;;;;;5046473;28;20120;-69
2023/05/30 14:00:32;;;;;;;3.67;2.70;;;;;;;;;;5050306;28;20051;-69
2023/05/30 14:03:00;;;;;;;3.50;2.90;;;;;;;;;;5048331;28;20018;-69
2023/05/30 14:05:26;;;;;;;9.13;3.03;;;;;;;;;;5048216;28;20512;-70
2023/05/30 14:07:53;;;;;;;4.13;2.78;;;;;;;;;;5047394;28;20021;-70
2023/05/30 14:10:20;;;;;;;3.58;2.78;;;;;;;;;;5047377;28;20031;-69
2023/05/30 14:12:47;;;;;;;5.07;2.95;;;;;;;;;;5050090;28;20013;-69
2023/05/30 14:15:16;;;;;;;8.15;3.00;;;;;;;;;;5053661;28;20013;-68
2023/05/30 14:17:42;;;;;;;4.63;3.10;;;;;;;;;;5052892;28;20024;-69
2023/05/30 14:20:10;;;;;;;5.53;3.20;;;;;;;;;;5053132;28;20021;-69
2023/05/30 14:22:36;;;;;;;4.55;2.90;;;;;;;;;;5040517;28;20032;-69
2023/05/30 14:25:03;;;;;;;3.75;2.85;;;;;;;;;;5041409;28;20458;-69
2023/05/30 14:27:32;;;;;;;5.25;3.40;;;;;;;;;;5048517;28;20041;-69
2023/05/30 14:30:00;;;;;;;4.15;3.00;;;;;;;;;;5044541;28;20025;-70
2023/05/30 14:32:26;;;;;;;5.13;3.17;;;;;;;;;;5046914;28;20025;-68
2023/05/30 14:35:00;;;;;;;5.70;3.20;;;;;;;;;;5046083;28;20366;-69
2023/05/30 14:37:26;;;;;;;5.20;3.25;;;;;;;;;;5052026;28;20025;-70
2023/05/30 14:39:52;;;;;;;3.90;3.08;;;;;;;;;;5058874;28;20029;-69
2023/05/30 14:42:19;;;;;;;3.30;3.00;;;;;;;;;;5052577;28;20024;-69
2023/05/30 14:44:45;;;;;;;4.05;3.10;;;;;;;;;;5047083;28;20033;-69
2023/05/30 14:47:11;;;;;;;4.70;3.30;;;;;;;;;;5051443;28;20428;-68